sensor_id;sensor_type;location;lat;lon;timestamp;temperature;humidity
15916;DHT22;8057;47.830;-3.870;2022-10-17T00:14:19;16.50;99.90
15916;DHT22;8057;47.830;-3.870;2022-10-17T00:24:24;16.40;99.90
15916;DHT22;8057;47.830;-3.870;2022-10-17T00:29:14;16.50;99.90
15916;DHT22;8057;47.830;-3.870;2022-10-17T08:32:20;15.90;99.90
15916;DHT22;8057;47.830;-3.870;2022-10-17T08:36:32;16.00;99.90
15916;DHT22;8057;47.830;-3.870;2022-10-17T09:26:02;17.00;99.90
15916;DHT22;8057;47.830;-3.870;2022-10-17T09:30:39;16.90;99.90
15916;DHT22;8057;47.830;-3.870;2022-10-17T09:35:11;17.00;99.90
15916;DHT22;8057;47.830;-3.870;2022-10-17T09:40:17;17.10;99.90
15916;DHT22;8057;47.830;-3.870;2022-10-17T09:45:12;17.40;99.90
15916;DHT22;8057;47.830;-3.870;2022-10-17T09:49:35;17.60;99.90
15916;DHT22;8057;47.830;-3.870;2022-10-17T09:54:25;17.80;99.90
15916;DHT22;8057;47.830;-3.870;2022-10-17T09:58:57;17.80;99.90
15916;DHT22;8057;47.830;-3.870;2022-10-17T10:03:09;17.80;99.90
15916;DHT22;8057;47.830;-3.870;2022-10-17T10:07:20;17.80;99.90
15916;DHT22;8057;47.830;-3.870;2022-10-17T10:11:46;17.90;99.90
15916;DHT22;8057;47.830;-3.870;2022-10-17T10:16:16;17.90;99.90
15916;DHT22;8057;47.830;-3.870;2022-10-17T10:20:36;17.80;99.90
15916;DHT22;8057;47.830;-3.870;2022-10-17T10:25:14;17.60;99.90
15916;DHT22;8057;47.830;-3.870;2022-10-17T10:29:28;17.60;99.90
15916;DHT22;8057;47.830;-3.870;2022-10-17T10:34:10;17.60;99.90
15916;DHT22;8057;47.830;-3.870;2022-10-17T10:38:25;17.80;99.90
15916;DHT22;8057;47.830;-3.870;2022-10-17T10:42:51;17.80;99.90
15916;DHT22;8057;47.830;-3.870;2022-10-17T10:47:38;17.80;99.90
15916;DHT22;8057;47.830;-3.870;2022-10-17T10:52:10;17.90;99.90
15916;DHT22;8057;47.830;-3.870;2022-10-17T10:56:33;18.00;99.90
15916;DHT22;8057;47.830;-3.870;2022-10-17T11:00:48;18.10;99.90
15916;DHT22;8057;47.830;-3.870;2022-10-17T11:05:00;18.10;99.90
15916;DHT22;8057;47.830;-3.870;2022-10-17T11:13:48;18.20;99.90
15916;DHT22;8057;47.830;-3.870;2022-10-17T11:19:06;18.30;99.90
15916;DHT22;8057;47.830;-3.870;2022-10-17T11:23:27;18.20;99.90
15916;DHT22;8057;47.830;-3.870;2022-10-17T11:27:53;18.10;99.90
15916;DHT22;8057;47.830;-3.870;2022-10-17T11:32:25;18.10;99.90
15916;DHT22;8057;47.830;-3.870;2022-10-17T11:37:04;18.10;99.90
15916;DHT22;8057;47.830;-3.870;2022-10-17T11:41:19;18.10;99.90
15916;DHT22;8057;47.830;-3.870;2022-10-17T11:45:50;18.00;99.90
15916;DHT22;8057;47.830;-3.870;2022-10-17T11:50:24;18.00;99.90
15916;DHT22;8057;47.830;-3.870;2022-10-17T11:54:56;17.90;99.90
15916;DHT22;8057;47.830;-3.870;2022-10-17T11:59:44;18.00;99.90
15916;DHT22;8057;47.830;-3.870;2022-10-17T12:04:31;17.90;99.90
15916;DHT22;8057;47.830;-3.870;2022-10-17T12:08:50;18.00;99.90
15916;DHT22;8057;47.830;-3.870;2022-10-17T12:18:03;17.90;99.90
15916;DHT22;8057;47.830;-3.870;2022-10-17T12:22:34;17.90;99.90
15916;DHT22;8057;47.830;-3.870;2022-10-17T12:26:45;18.00;99.90
15916;DHT22;8057;47.830;-3.870;2022-10-17T12:30:57;17.80;99.90
15916;DHT22;8057;47.830;-3.870;2022-10-17T12:35:18;17.80;99.90
15916;DHT22;8057;47.830;-3.870;2022-10-17T12:39:53;17.80;99.90
15916;DHT22;8057;47.830;-3.870;2022-10-17T12:44:34;17.70;99.90
15916;DHT22;8057;47.830;-3.870;2022-10-17T12:49:03;17.50;99.90
15916;DHT22;8057;47.830;-3.870;2022-10-17T12:53:17;17.50;99.90
15916;DHT22;8057;47.830;-3.870;2022-10-17T12:57:35;17.40;99.90
15916;DHT22;8057;47.830;-3.870;2022-10-17T13:01:54;17.40;99.90
15916;DHT22;8057;47.830;-3.870;2022-10-17T13:06:06;17.40;99.90
15916;DHT22;8057;47.830;-3.870;2022-10-17T13:10:21;17.50;99.90
15916;DHT22;8057;47.830;-3.870;2022-10-17T13:14:31;17.40;99.90
15916;DHT22;8057;47.830;-3.870;2022-10-17T13:18:51;17.40;99.90
15916;DHT22;8057;47.830;-3.870;2022-10-17T13:23:01;17.40;99.90
15916;DHT22;8057;47.830;-3.870;2022-10-17T13:27:23;17.40;99.90
15916;DHT22;8057;47.830;-3.870;2022-10-17T13:31:34;17.40;99.90
15916;DHT22;8057;47.830;-3.870;2022-10-17T13:35:46;17.40;99.90
15916;DHT22;8057;47.830;-3.870;2022-10-17T13:40:20;17.40;99.90
15916;DHT22;8057;47.830;-3.870;2022-10-17T13:44:51;17.40;99.90
15916;DHT22;8057;47.830;-3.870;2022-10-17T13:49:09;17.40;99.90
15916;DHT22;8057;47.830;-3.870;2022-10-17T13:53:28;17.30;99.90
15916;DHT22;8057;47.830;-3.870;2022-10-17T13:57:38;17.30;99.90
15916;DHT22;8057;47.830;-3.870;2022-10-17T14:01:48;17.30;99.90
15916;DHT22;8057;47.830;-3.870;2022-10-17T14:06:05;17.20;99.90
15916;DHT22;8057;47.830;-3.870;2022-10-17T14:10:21;17.10;99.90
15916;DHT22;8057;47.830;-3.870;2022-10-17T14:14:31;17.10;99.90
15916;DHT22;8057;47.830;-3.870;2022-10-17T14:19:01;17.10;99.90
15916;DHT22;8057;47.830;-3.870;2022-10-17T14:23:28;17.10;99.90
15916;DHT22;8057;47.830;-3.870;2022-10-17T14:27:54;17.10;99.90
15916;DHT22;8057;47.830;-3.870;2022-10-17T14:32:12;17.30;99.90
15916;DHT22;8057;47.830;-3.870;2022-10-17T14:36:39;17.60;99.90
15916;DHT22;8057;47.830;-3.870;2022-10-17T14:40:50;17.80;99.90
15916;DHT22;8057;47.830;-3.870;2022-10-17T14:45:26;17.80;99.90
15916;DHT22;8057;47.830;-3.870;2022-10-17T14:49:39;17.80;99.90
15916;DHT22;8057;47.830;-3.870;2022-10-17T14:54:04;17.70;99.90
15916;DHT22;8057;47.830;-3.870;2022-10-17T14:58:27;17.70;99.90
15916;DHT22;8057;47.830;-3.870;2022-10-17T15:02:40;17.70;99.90
15916;DHT22;8057;47.830;-3.870;2022-10-17T15:06:54;17.70;99.90
15916;DHT22;8057;47.830;-3.870;2022-10-17T15:15:53;17.70;99.90
15916;DHT22;8057;47.830;-3.870;2022-10-17T15:20:39;17.60;99.90
15916;DHT22;8057;47.830;-3.870;2022-10-17T15:25:07;17.60;99.90
15916;DHT22;8057;47.830;-3.870;2022-10-17T15:29:40;17.60;99.90
15916;DHT22;8057;47.830;-3.870;2022-10-17T15:33:51;17.60;99.90
15916;DHT22;8057;47.830;-3.870;2022-10-17T15:38:10;17.60;99.90
15916;DHT22;8057;47.830;-3.870;2022-10-17T15:42:28;17.50;99.90
15916;DHT22;8057;47.830;-3.870;2022-10-17T15:46:39;17.50;99.90
15916;DHT22;8057;47.830;-3.870;2022-10-17T15:50:50;17.60;99.90
15916;DHT22;8057;47.830;-3.870;2022-10-17T15:55:00;17.60;99.90
15916;DHT22;8057;47.830;-3.870;2022-10-17T15:59:13;17.70;99.90
15916;DHT22;8057;47.830;-3.870;2022-10-17T16:03:24;17.60;99.90
15916;DHT22;8057;47.830;-3.870;2022-10-17T16:07:34;17.60;99.90
15916;DHT22;8057;47.830;-3.870;2022-10-17T16:11:48;17.60;99.90
15916;DHT22;8057;47.830;-3.870;2022-10-17T16:15:57;17.60;99.90
15916;DHT22;8057;47.830;-3.870;2022-10-17T16:20:08;17.50;99.90
15916;DHT22;8057;47.830;-3.870;2022-10-17T16:24:20;17.50;99.90
15916;DHT22;8057;47.830;-3.870;2022-10-17T16:28:42;17.60;99.90
15916;DHT22;8057;47.830;-3.870;2022-10-17T16:32:53;17.60;99.90
15916;DHT22;8057;47.830;-3.870;2022-10-17T16:37:10;17.60;99.90
15916;DHT22;8057;47.830;-3.870;2022-10-17T16:41:22;17.60;99.90
15916;DHT22;8057;47.830;-3.870;2022-10-17T16:45:35;17.50;99.90
15916;DHT22;8057;47.830;-3.870;2022-10-17T16:49:45;17.50;99.90
15916;DHT22;8057;47.830;-3.870;2022-10-17T16:54:00;17.50;99.90
15916;DHT22;8057;47.830;-3.870;2022-10-17T16:58:39;17.40;99.90
15916;DHT22;8057;47.830;-3.870;2022-10-17T17:03:08;17.30;99.90
15916;DHT22;8057;47.830;-3.870;2022-10-17T17:11:42;17.30;99.90
15916;DHT22;8057;47.830;-3.870;2022-10-17T17:16:03;17.20;99.90
15916;DHT22;8057;47.830;-3.870;2022-10-17T17:20:15;17.10;99.90
15916;DHT22;8057;47.830;-3.870;2022-10-17T17:24:25;17.10;99.90
15916;DHT22;8057;47.830;-3.870;2022-10-17T17:28:35;17.10;99.90
15916;DHT22;8057;47.830;-3.870;2022-10-17T17:32:46;17.00;99.90
15916;DHT22;8057;47.830;-3.870;2022-10-17T17:36:58;16.90;99.90
15916;DHT22;8057;47.830;-3.870;2022-10-17T17:41:10;16.90;99.90
15916;DHT22;8057;47.830;-3.870;2022-10-17T17:45:21;16.80;99.90
15916;DHT22;8057;47.830;-3.870;2022-10-17T17:49:31;16.80;99.90
15916;DHT22;8057;47.830;-3.870;2022-10-17T17:53:43;16.70;99.90
15916;DHT22;8057;47.830;-3.870;2022-10-17T17:57:53;16.70;99.90
15916;DHT22;8057;47.830;-3.870;2022-10-17T18:02:03;16.60;99.90
15916;DHT22;8057;47.830;-3.870;2022-10-17T18:06:13;16.50;99.90
15916;DHT22;8057;47.830;-3.870;2022-10-17T18:10:27;16.30;99.90
15916;DHT22;8057;47.830;-3.870;2022-10-17T18:14:38;16.20;99.90
15916;DHT22;8057;47.830;-3.870;2022-10-17T18:18:47;16.10;99.90
15916;DHT22;8057;47.830;-3.870;2022-10-17T18:22:57;16.10;99.90
15916;DHT22;8057;47.830;-3.870;2022-10-17T18:27:14;16.00;99.90
15916;DHT22;8057;47.830;-3.870;2022-10-17T18:31:25;16.00;99.90
15916;DHT22;8057;47.830;-3.870;2022-10-17T18:35:35;15.90;99.90
15916;DHT22;8057;47.830;-3.870;2022-10-17T18:39:46;15.80;99.90
15916;DHT22;8057;47.830;-3.870;2022-10-17T18:44:00;15.80;99.90
15916;DHT22;8057;47.830;-3.870;2022-10-17T18:48:10;15.70;99.90
15916;DHT22;8057;47.830;-3.870;2022-10-17T18:52:20;15.70;99.90
15916;DHT22;8057;47.830;-3.870;2022-10-17T18:56:33;15.70;99.90
15916;DHT22;8057;47.830;-3.870;2022-10-17T19:00:45;15.50;99.90
15916;DHT22;8057;47.830;-3.870;2022-10-17T19:04:58;15.50;99.90
15916;DHT22;8057;47.830;-3.870;2022-10-17T19:09:10;15.50;99.90
15916;DHT22;8057;47.830;-3.870;2022-10-17T19:13:35;15.50;99.90
15916;DHT22;8057;47.830;-3.870;2022-10-17T19:17:52;15.40;99.90
15916;DHT22;8057;47.830;-3.870;2022-10-17T19:22:02;15.40;99.90
15916;DHT22;8057;47.830;-3.870;2022-10-17T19:26:12;15.30;99.90
15916;DHT22;8057;47.830;-3.870;2022-10-17T19:30:21;15.30;99.90
15916;DHT22;8057;47.830;-3.870;2022-10-17T19:34:32;15.20;99.90
15916;DHT22;8057;47.830;-3.870;2022-10-17T19:38:42;15.20;99.90
15916;DHT22;8057;47.830;-3.870;2022-10-17T19:42:52;15.10;99.90
15916;DHT22;8057;47.830;-3.870;2022-10-17T19:47:01;15.10;99.90
15916;DHT22;8057;47.830;-3.870;2022-10-17T19:51:15;15.00;99.90
15916;DHT22;8057;47.830;-3.870;2022-10-17T19:55:28;15.00;99.90
15916;DHT22;8057;47.830;-3.870;2022-10-17T20:00:15;15.00;99.90
15916;DHT22;8057;47.830;-3.870;2022-10-17T21:01:20;14.90;99.90
15916;DHT22;8057;47.830;-3.870;2022-10-17T21:14:23;15.00;99.90
15916;DHT22;8057;47.830;-3.870;2022-10-17T21:19:52;15.00;99.90
15916;DHT22;8057;47.830;-3.870;2022-10-17T21:44:15;15.10;99.90
15916;DHT22;8057;47.830;-3.870;2022-10-17T21:48:42;15.10;99.90
15916;DHT22;8057;47.830;-3.870;2022-10-17T21:52:52;15.00;99.90
15916;DHT22;8057;47.830;-3.870;2022-10-17T21:57:04;15.00;99.90
15916;DHT22;8057;47.830;-3.870;2022-10-17T22:01:18;14.90;99.90
15916;DHT22;8057;47.830;-3.870;2022-10-17T22:05:34;14.90;99.90
15916;DHT22;8057;47.830;-3.870;2022-10-17T22:10:11;14.90;99.90
15916;DHT22;8057;47.830;-3.870;2022-10-17T22:14:22;14.90;99.90
15916;DHT22;8057;47.830;-3.870;2022-10-17T22:18:34;14.90;99.90
15916;DHT22;8057;47.830;-3.870;2022-10-17T22:22:45;15.00;99.90
15916;DHT22;8057;47.830;-3.870;2022-10-17T22:26:56;15.10;99.90
15916;DHT22;8057;47.830;-3.870;2022-10-17T22:31:07;15.10;99.90
15916;DHT22;8057;47.830;-3.870;2022-10-17T22:35:20;15.10;99.90
15916;DHT22;8057;47.830;-3.870;2022-10-17T22:39:45;15.00;99.90
15916;DHT22;8057;47.830;-3.870;2022-10-17T22:44:00;14.90;99.90
15916;DHT22;8057;47.830;-3.870;2022-10-17T22:48:19;14.90;99.90
15916;DHT22;8057;47.830;-3.870;2022-10-17T22:53:00;14.90;99.90
15916;DHT22;8057;47.830;-3.870;2022-10-17T22:57:32;14.80;99.90
15916;DHT22;8057;47.830;-3.870;2022-10-17T23:01:46;14.70;99.90
15916;DHT22;8057;47.830;-3.870;2022-10-17T23:05:58;14.80;99.90
